Time;durP1;ratioP1;P1;durP2;ratioP2;P2;SDS_P1;SDS_P2;PMS_P1;PMS_P2;Temp;Humidity;BMP_temperature;BMP_pressure;BME280_temperature;BME280_humidity;BME280_pressure;Samples;Min_cycle;Max_cycle;Signal;HPM_P1;HPM_P2
2022/12/13 00:00:44;;;;;;;;;;;;;;;2.93;55.03;99166.47;4354739;32;33713;-69
2022/12/13 00:03:12;;;;;;;;;;;;;;;3.55;53.21;99173.75;4356222;32;33173;-69
2022/12/13 00:05:41;;;;;;;;;;;;;;;3.71;52.49;99177.25;4358631;32;34140;-68
2022/12/13 00:08:09;;;;;;;;;;;;;;;4.16;50.69;99183.53;4357456;32;34403;-70
2022/12/13 00:10:36;;;;;;;;;;;;;;;3.79;52.09;99188.28;4360928;32;35013;-69
2022/12/13 00:13:04;;;;;;;;;;;;;;;3.87;50.80;99186.03;4360600;32;34132;-69
2022/12/13 00:15:31;;;;;;;;;;;;;;;4.01;51.00;99181.75;4360594;32;35254;-70
2022/12/13 00:17:58;;;;;;;;;;;;;;;3.21;55.67;99183.50;4357523;32;35591;-71
2022/12/13 00:20:25;;;;;;;;;;;;;;;3.55;52.10;99179.03;4360538;32;35137;-73
2022/12/13 00:22:53;;;;;;;;;;;;;;;4.04;50.80;99184.22;4358880;32;32277;-69
2022/12/13 00:25:20;;;;;;;;;;;;;;;3.84;51.09;99188.00;4360635;32;33895;-70
2022/12/13 00:27:47;;;;;;;;;;;;;;;4.00;50.57;99185.34;4361015;32;34119;-71
2022/12/13 00:30:14;;;;;;;;;;;;;;;4.13;50.32;99173.94;4362717;32;33380;-70
2022/12/13 00:32:42;;;;;;;;;;;;;;;4.25;50.38;99185.66;4357177;32;34643;-68
2022/12/13 00:35:09;;;;;;;;;;;;;;;3.74;51.35;99185.84;4348941;32;34208;-70
2022/12/13 00:37:36;;;;;;;;;;;;;;;4.11;50.37;99185.56;4357077;32;34792;-70
2022/12/13 00:40:04;;;;;;;;;;;;;;;3.97;50.87;99189.84;4358440;32;33456;-71
2022/12/13 00:42:31;;;;;;;;;;;;;;;4.33;49.42;99188.69;4361474;32;33209;-69
2022/12/13 00:44:58;;;;;;;;;;;;;;;4.02;50.03;99192.25;4358684;32;32684;-72
2022/12/13 00:47:26;;;;;;;;;;;;;;;3.92;50.09;99199.88;4360808;32;34297;-69
2022/12/13 00:49:53;;;;;;;;;;;;;;;3.89;50.76;99205.34;4360385;32;34547;-69
2022/12/13 00:52:20;;;;;;;;;;;;;;;4.15;49.64;99203.03;4359715;32;33722;-71
2022/12/13 00:54:48;;;;;;;;;;;;;;;3.47;50.97;99220.00;4359378;32;34362;-72
2022/12/13 00:57:15;;;;;;;;;;;;;;;4.23;49.20;99207.87;4357595;32;34336;-70
2022/12/13 00:59:42;;;;;;;;;;;;;;;3.98;49.72;99217.22;4357319;32;34181;-70
2022/12/13 01:02:10;;;;;;;;;;;;;;;3.72;50.70;99222.16;4360435;32;34424;-71
2022/12/13 01:04:37;;;;;;;;;;;;;;;3.83;50.36;99224.22;4358182;32;35039;-72
2022/12/13 01:07:04;;;;;;;;;;;;;;;3.94;50.02;99218.31;4360282;32;34897;-69
2022/12/13 01:09:32;;;;;;;;;;;;;;;3.96;50.50;99227.03;4361096;32;33963;-69
2022/12/13 01:12:04;;;;;;;;;;;;;;;3.84;51.35;99228.56;4361723;32;33078;-69
2022/12/13 01:14:35;;;;;;;;;;;;;;;3.84;50.47;99230.34;4357763;32;35573;-68
2022/12/13 01:17:02;;;;;;;;;;;;;;;4.16;49.89;99231.19;4359020;32;34708;-68
2022/12/13 01:19:31;;;;;;;;;;;;;;;4.34;49.08;99234.62;4360564;32;34231;-69
2022/12/13 01:22:00;;;;;;;;;;;;;;;4.56;48.43;99228.91;4359175;32;33766;-70
2022/12/13 01:24:28;;;;;;;;;;;;;;;4.46;48.48;99230.38;4360963;32;33904;-69
2022/12/13 01:26:56;;;;;;;;;;;;;;;4.46;49.25;99225.94;4359229;32;34521;-69
2022/12/13 01:29:24;;;;;;;;;;;;;;;4.45;49.42;99234.84;4359033;32;34504;-69
2022/12/13 01:31:52;;;;;;;;;;;;;;;4.28;48.63;99227.88;4358749;32;33390;-71
2022/12/13 01:34:20;;;;;;;;;;;;;;;4.25;48.97;99225.38;4361127;32;33898;-68
2022/12/13 01:36:53;;;;;;;;;;;;;;;4.36;48.76;99230.91;4360287;32;34435;-69
2022/12/13 01:39:24;;;;;;;;;;;;;;;4.36;49.13;99227.41;4360166;32;34525;-69
2022/12/13 01:41:58;;;;;;;;;;;;;;;4.30;49.14;99231.28;4361936;32;34621;-68
2022/12/13 01:44:45;;;;;;;;;;;;;;;3.98;49.26;99230.47;4362771;32;34185;-68
2022/12/13 01:47:12;;;;;;;;;;;;;;;3.43;51.65;99233.47;4352350;32;33083;-66
2022/12/13 01:49:40;;;;;;;;;;;;;;;3.92;49.81;99236.94;4349868;32;34161;-68
2022/12/13 01:52:07;;;;;;;;;;;;;;;3.78;49.85;99242.12;4346755;32;33611;-68
2022/12/13 01:54:36;;;;;;;;;;;;;;;3.62;50.69;99242.12;4348002;32;34502;-69
2022/12/13 01:57:04;;;;;;;;;;;;;;;3.38;51.49;99246.94;4360088;32;34468;-69
2022/12/13 01:59:32;;;;;;;;;;;;;;;3.92;49.67;99241.38;4352316;32;34333;-68
2022/12/13 02:02:00;;;;;;;;;;;;;;;3.99;49.49;99241.91;4361626;32;33730;-68
2022/12/13 02:04:29;;;;;;;;;;;;;;;4.04;48.85;99234.53;4349140;32;34865;-67
2022/12/13 02:06:56;;;;;;;;;;;;;;;4.05;49.33;99237.13;4361643;32;34137;-68
2022/12/13 02:09:23;;;;;;;;;;;;;;;3.91;48.77;99240.50;4359496;32;35167;-68
2022/12/13 02:11:51;;;;;;;;;;;;;;;3.73;49.82;99238.91;4359141;32;34878;-67
2022/12/13 02:14:18;;;;;;;;;;;;;;;3.56;50.12;99234.50;4362226;32;34481;-66
2022/12/13 02:16:56;;;;;;;;;;;;;;;3.67;49.77;99241.88;4359777;32;34307;-67
2022/12/13 02:19:33;;;;;;;;;;;;;;;3.80;50.12;99237.63;4347592;32;33497;-67
2022/12/13 02:22:19;;;;;;;;;;;;;;;3.76;49.72;99248.44;4341319;32;32896;-69
2022/12/13 02:24:55;;;;;;;;;;;;;;;4.08;48.49;99236.94;4356164;32;32642;-67
2022/12/13 02:27:34;;;;;;;;;;;;;;;4.02;48.59;99231.13;4347009;32;35369;-69
2022/12/13 02:30:29;;;;;;;;;;;;;;;3.77;49.61;99236.94;4348389;32;34130;-67
2022/12/13 02:32:59;;;;;;;;;;;;;;;3.95;49.21;99230.63;4360123;32;33273;-66
2022/12/13 02:35:30;;;;;;;;;;;;;;;4.01;48.80;99234.72;4356221;32;33738;-70
2022/12/13 02:38:04;;;;;;;;;;;;;;;4.06;48.13;99235.31;4355574;32;34352;-68
2022/12/13 02:40:33;;;;;;;;;;;;;;;4.29;47.78;99234.00;4358470;32;34203;-66
2022/12/13 02:43:03;;;;;;;;;;;;;;;4.31;47.56;99234.78;4346528;32;33642;-67
2022/12/13 02:45:31;;;;;;;;;;;;;;;4.49;46.95;99232.84;4359864;32;35179;-66
2022/12/13 02:47:59;;;;;;;;;;;;;;;4.53;46.59;99235.25;4344470;32;32705;-67
2022/12/13 02:50:27;;;;;;;;;;;;;;;4.24;47.18;99236.94;4350869;32;33948;-69
2022/12/13 02:52:55;;;;;;;;;;;;;;;3.86;48.61;99245.22;4343268;32;33240;-70
2022/12/13 02:55:22;;;;;;;;;;;;;;;4.07;47.64;99239.66;4340553;32;32932;-69
2022/12/13 02:57:54;;;;;;;;;;;;;;;4.13;47.36;99241.97;4342822;32;35063;-66
2022/12/13 03:00:26;;;;;;;;;;;;;;;4.07;47.96;99242.31;4345096;32;33535;-67
2022/12/13 03:02:58;;;;;;;;;;;;;;;4.08;47.81;99242.25;4341639;32;32948;-67
2022/12/13 03:08:35;;;;;;;;;;;;;;;4.21;47.05;99247.69;4355672;32;33031;-68
2022/12/13 03:11:07;;;;;;;;;;;;;;;4.39;46.10;99249.28;4342335;32;33769;-69
2022/12/13 03:13:37;;;;;;;;;;;;;;;4.40;45.87;99242.22;4360474;32;33114;-69
2022/12/13 03:16:23;;;;;;;;;;;;;;;4.24;46.55;99241.34;4350423;32;33770;-69
2022/12/13 03:18:52;;;;;;;;;;;;;;;4.33;46.20;99240.84;4354046;32;35198;-68
2022/12/13 03:21:21;;;;;;;;;;;;;;;4.35;46.11;99241.59;4355665;32;33864;-67
2022/12/13 03:23:48;;;;;;;;;;;;;;;4.29;46.73;99240.16;4355055;32;33431;-68
2022/12/13 03:26:23;;;;;;;;;;;;;;;4.13;46.17;99242.81;4357202;32;32698;-68
2022/12/13 03:28:50;;;;;;;;;;;;;;;4.11;46.47;99235.91;4356987;32;35376;-68
2022/12/13 03:31:18;;;;;;;;;;;;;;;3.96;46.56;99241.13;4358537;32;34132;-67
2022/12/13 03:33:45;;;;;;;;;;;;;;;3.93;46.83;99243.94;4358521;32;33046;-69
2022/12/13 03:36:12;;;;;;;;;;;;;;;3.94;46.70;99252.72;4357057;32;32463;-67
2022/12/13 03:38:40;;;;;;;;;;;;;;;4.09;46.46;99257.19;4359199;32;34082;-67
2022/12/13 03:41:11;;;;;;;;;;;;;;;4.17;46.21;99254.97;4358897;32;33918;-68
2022/12/13 03:43:39;;;;;;;;;;;;;;;4.23;46.08;99260.84;4359960;32;33672;-68
2022/12/13 03:46:07;;;;;;;;;;;;;;;3.70;46.96;99261.09;4358604;32;35490;-69
2022/12/13 03:48:34;;;;;;;;;;;;;;;3.66;47.13;99258.69;4357753;32;34810;-68
2022/12/13 03:51:02;;;;;;;;;;;;;;;3.69;46.96;99263.81;4360176;32;33944;-68
2022/12/13 03:53:29;;;;;;;;;;;;;;;3.82;46.59;99259.56;4356903;32;34422;-68
2022/12/13 03:56:04;;;;;;;;;;;;;;;3.96;46.21;99250.88;4357077;32;37260;-70
2022/12/13 03:58:32;;;;;;;;;;;;;;;3.83;46.67;99257.78;4356726;32;35572;-69
2022/12/13 04:01:05;;;;;;;;;;;;;;;3.42;47.86;99250.28;4353985;32;34269;-68
2022/12/13 04:03:32;;;;;;;;;;;;;;;3.76;47.34;99253.75;4357213;32;32045;-68
2022/12/13 04:05:59;;;;;;;;;;;;;;;4.05;46.41;99249.50;4359525;32;33124;-68
2022/12/13 04:08:27;;;;;;;;;;;;;;;4.14;45.85;99257.78;4358603;32;34811;-68
2022/12/13 04:10:54;;;;;;;;;;;;;;;4.25;45.42;99262.47;4359504;32;34467;-68
2022/12/13 04:13:33;;;;;;;;;;;;;;;4.20;45.17;99264.50;4355499;32;33648;-71
2022/12/13 04:16:01;;;;;;;;;;;;;;;4.13;45.28;99271.94;4353597;32;35025;-70
2022/12/13 04:18:29;;;;;;;;;;;;;;;3.85;46.12;99277.94;4356646;32;35121;-67
2022/12/13 04:20:56;;;;;;;;;;;;;;;3.98;45.60;99280.78;4358569;32;33585;-67
2022/12/13 04:23:24;;;;;;;;;;;;;;;4.06;45.44;99270.59;4358472;32;31917;-68
2022/12/13 04:25:51;;;;;;;;;;;;;;;4.11;45.38;99271.22;4357528;32;34079;-70
2022/12/13 04:28:18;;;;;;;;;;;;;;;4.07;45.74;99269.66;4358286;32;33769;-66
2022/12/13 04:30:49;;;;;;;;;;;;;;;4.16;45.48;99266.47;4357504;32;34351;-68
2022/12/13 04:33:20;;;;;;;;;;;;;;;4.24;44.82;99260.78;4358637;32;33308;-67
2022/12/13 04:35:48;;;;;;;;;;;;;;;4.17;44.88;99259.38;4355392;32;33961;-67
2022/12/13 04:38:15;;;;;;;;;;;;;;;4.05;45.36;99255.66;4358668;32;33964;-66
2022/12/13 04:40:42;;;;;;;;;;;;;;;4.07;45.54;99258.19;4358554;32;33886;-67
2022/12/13 04:43:09;;;;;;;;;;;;;;;4.07;45.12;99258.19;4358112;32;33893;-67
2022/12/13 04:45:37;;;;;;;;;;;;;;;3.87;45.70;99267.25;4346110;32;32894;-66
2022/12/13 04:48:04;;;;;;;;;;;;;;;3.79;45.68;99267.69;4350225;32;34282;-67
2022/12/13 04:50:32;;;;;;;;;;;;;;;3.79;45.51;99272.97;4359033;32;33907;-67
2022/12/13 04:52:59;;;;;;;;;;;;;;;3.85;45.52;99271.75;4355481;32;34053;-68
2022/12/13 04:55:26;;;;;;;;;;;;;;;3.91;45.49;99268.78;4357706;32;34134;-68
2022/12/13 04:57:54;;;;;;;;;;;;;;;4.01;45.23;99264.69;4358575;32;34582;-67
2022/12/13 05:00:22;;;;;;;;;;;;;;;3.98;45.01;99264.88;4354019;32;34025;-68
2022/12/13 05:02:49;;;;;;;;;;;;;;;4.01;44.68;99256.75;4350954;32;34470;-68
2022/12/13 05:05:16;;;;;;;;;;;;;;;3.91;44.76;99255.53;4356279;32;33881;-68
2022/12/13 05:07:45;;;;;;;;;;;;;;;3.82;45.08;99256.94;4357838;32;33188;-67
2022/12/13 05:10:12;;;;;;;;;;;;;;;3.75;45.39;99263.47;4354997;32;36033;-68
2022/12/13 05:13:00;;;;;;;;;;;;;;;3.70;45.61;99265.53;4351024;32;33166;-68
2022/12/13 05:15:29;;;;;;;;;;;;;;;3.72;45.36;99266.28;4356227;32;32738;-68
2022/12/13 05:18:02;;;;;;;;;;;;;;;3.67;45.33;99271.84;4354816;32;34327;-68
2022/12/13 05:20:38;;;;;;;;;;;;;;;3.66;45.38;99270.16;4353075;32;33524;-68
2022/12/13 05:23:05;;;;;;;;;;;;;;;3.58;45.63;99274.12;4358827;32;31505;-67
2022/12/13 05:25:33;;;;;;;;;;;;;;;3.61;45.85;99276.63;4356300;32;32588;-68
2022/12/13 05:28:00;;;;;;;;;;;;;;;3.65;45.99;99272.84;4359080;32;33912;-68
2022/12/13 05:30:48;;;;;;;;;;;;;;;3.36;46.22;99272.62;4356860;32;32982;-68
2022/12/13 05:33:15;;;;;;;;;;;;;;;3.25;46.33;99259.97;4360209;32;33145;-68
2022/12/13 05:35:45;;;;;;;;;;;;;;;3.32;45.96;99272.88;4356183;32;32959;-67
2022/12/13 05:38:12;;;;;;;;;;;;;;;3.41;45.11;99267.94;4357638;32;33977;-69
2022/12/13 05:40:40;;;;;;;;;;;;;;;3.19;45.58;99277.94;4356095;32;32662;-67
2022/12/13 05:43:08;;;;;;;;;;;;;;;3.19;45.14;99277.94;4356817;32;34375;-68
2022/12/13 05:45:49;;;;;;;;;;;;;;;3.41;44.50;99270.59;4349577;32;34145;-70
2022/12/13 05:48:17;;;;;;;;;;;;;;;3.43;44.20;99281.94;4357596;32;33991;-70
2022/12/13 05:50:51;;;;;;;;;;;;;;;3.33;44.50;99270.13;4357158;32;34537;-70
2022/12/13 05:53:40;;;;;;;;;;;;;;;3.24;44.79;99268.84;4355158;32;33760;-69
2022/12/13 05:56:09;;;;;;;;;;;;;;;3.29;45.05;99267.75;4353874;32;35118;-69
2022/12/13 05:58:37;;;;;;;;;;;;;;;3.13;46.15;99267.69;4355566;32;34495;-69
2022/12/13 06:01:12;;;;;;;;;;;;;;;3.21;46.10;99273.41;4347315;32;33758;-68
2022/12/13 06:03:40;;;;;;;;;;;;;;;3.13;46.24;99279.13;4358478;32;32942;-68
2022/12/13 06:06:08;;;;;;;;;;;;;;;3.25;45.76;99281.12;4353917;32;34105;-70
2022/12/13 06:08:35;;;;;;;;;;;;;;;3.25;45.60;99285.56;4347946;32;35128;-69
2022/12/13 06:11:06;;;;;;;;;;;;;;;3.42;45.22;99288.16;4354770;32;35288;-69
2022/12/13 06:13:42;;;;;;;;;;;;;;;3.47;45.02;99282.66;4354145;32;32973;-68
2022/12/13 06:16:11;;;;;;;;;;;;;;;3.36;45.49;99283.19;4354234;32;34129;-68
2022/12/13 06:18:54;;;;;;;;;;;;;;;3.10;46.48;99286.34;4352231;32;35396;-67
2022/12/13 06:21:31;;;;;;;;;;;;;;;3.06;47.20;99285.66;4357660;32;33788;-68
2022/12/13 06:24:12;;;;;;;;;;;;;;;3.42;46.35;99288.16;4357856;32;32855;-69
2022/12/13 06:26:39;;;;;;;;;;;;;;;3.58;45.38;99290.00;4355882;32;35812;-67
2022/12/13 06:29:07;;;;;;;;;;;;;;;3.69;44.55;99292.91;4355087;32;34713;-66
2022/12/13 06:31:34;;;;;;;;;;;;;;;3.75;43.74;99292.59;4353928;32;35010;-68
2022/12/13 06:34:02;;;;;;;;;;;;;;;3.62;44.58;99297.69;4367970;32;32651;-64
2022/12/13 06:36:41;;;;;;;;;;;;;;;3.63;44.45;99311.81;4357390;32;34324;-65
2022/12/13 06:39:09;;;;;;;;;;;;;;;3.67;43.89;99316.84;4357985;32;32764;-63
2022/12/13 06:41:37;;;;;;;;;;;;;;;3.77;44.14;99311.91;4353537;32;34690;-66
2022/12/13 06:44:04;;;;;;;;;;;;;;;3.93;43.56;99310.13;4355867;32;31671;-64
2022/12/13 06:46:31;;;;;;;;;;;;;;;4.07;43.43;99319.97;4355445;32;34949;-65
2022/12/13 06:48:59;;;;;;;;;;;;;;;4.42;43.34;99312.72;4356297;32;34956;-65
2022/12/13 06:51:26;;;;;;;;;;;;;;;5.79;41.09;99312.59;4352833;32;35191;-65
2022/12/13 06:54:01;;;;;;;;;;;;;;;6.63;37.71;99320.56;4354914;32;34166;-65
2022/12/13 06:56:28;;;;;;;;;;;;;;;6.82;36.34;99317.53;4355007;32;34691;-64
2022/12/13 06:58:56;;;;;;;;;;;;;;;6.53;37.19;99320.28;4356284;32;33130;-64
2022/12/13 07:01:28;;;;;;;;;;;;;;;7.05;36.38;99320.47;4354906;32;32766;-65
2022/12/13 07:04:08;;;;;;;;;;;;;;;7.72;34.99;99326.53;4356469;32;33379;-65
2022/12/13 07:06:56;;;;;;;;;;;;;;;8.01;34.78;99331.63;4347174;32;34747;-65
2022/12/13 07:09:31;;;;;;;;;;;;;;;7.92;34.78;99333.13;4355259;32;33914;-65
2022/12/13 07:11:58;;;;;;;;;;;;;;;7.39;36.16;99335.88;4357194;32;35081;-64
2022/12/13 07:14:25;;;;;;;;;;;;;;;7.50;36.07;99334.28;4359547;32;33073;-64
2022/12/13 07:16:53;;;;;;;;;;;;;;;7.92;35.30;99333.97;4356735;32;33948;-65
2022/12/13 07:19:30;;;;;;;;;;;;;;;8.07;35.04;99334.69;4344949;32;34084;-65
2022/12/13 07:22:08;;;;;;;;;;;;;;;8.07;35.43;99337.37;4357713;32;32976;-67
2022/12/13 07:24:35;;;;;;;;;;;;;;;8.36;35.93;99342.44;4358003;32;32935;-65
2022/12/13 07:27:03;;;;;;;;;;;;;;;8.92;34.03;99340.13;4357696;32;34197;-65
2022/12/13 07:29:30;;;;;;;;;;;;;;;9.30;33.93;99339.06;4354794;32;34153;-66
2022/12/13 07:31:58;;;;;;;;;;;;;;;10.68;31.95;99336.25;4360115;32;34122;-65
2022/12/13 07:34:28;;;;;;;;;;;;;;;11.51;30.20;99334.69;4359264;32;33347;-68
2022/12/13 07:36:55;;;;;;;;;;;;;;;12.02;29.56;99331.22;4350889;32;34051;-68
2022/12/13 07:39:24;;;;;;;;;;;;;;;12.02;29.95;99337.44;4354871;32;33100;-68
2022/12/13 07:41:53;;;;;;;;;;;;;;;13.53;27.49;99332.78;4351748;32;34864;-69
2022/12/13 07:44:21;;;;;;;;;;;;;;;13.98;25.75;99338.34;4354811;32;33033;-69
2022/12/13 07:46:48;;;;;;;;;;;;;;;12.81;27.62;99347.44;4355659;32;35480;-69
2022/12/13 07:49:16;;;;;;;;;;;;;;;12.10;29.23;99345.66;4356860;32;34834;-69
2022/12/13 07:51:43;;;;;;;;;;;;;;;12.05;29.20;99347.03;4352652;32;33684;-69
2022/12/13 07:54:11;;;;;;;;;;;;;;;12.26;29.00;99341.62;4355961;32;33077;-69
2022/12/13 07:56:38;;;;;;;;;;;;;;;11.78;29.34;99345.75;4356588;32;33971;-70
2022/12/13 07:59:05;;;;;;;;;;;;;;;11.48;30.31;99346.53;4358173;32;32417;-69
2022/12/13 08:01:33;;;;;;;;;;;;;;;12.02;29.29;99341.94;4358528;32;33273;-69
2022/12/13 08:04:01;;;;;;;;;;;;;;;12.65;28.92;99337.25;4357345;32;32429;-69
2022/12/13 08:06:33;;;;;;;;;;;;;;;12.49;28.92;99343.13;4354235;32;34062;-69
2022/12/13 08:09:00;;;;;;;;;;;;;;;12.28;28.51;99345.87;4354384;32;34247;-69
2022/12/13 08:11:27;;;;;;;;;;;;;;;12.00;29.44;99346.59;4356117;32;32605;-70
2022/12/13 08:13:54;;;;;;;;;;;;;;;11.94;29.54;99348.00;4353178;32;33152;-69
2022/12/13 08:16:22;;;;;;;;;;;;;;;11.98;29.59;99352.09;4356345;32;32804;-70
2022/12/13 08:18:55;;;;;;;;;;;;;;;12.17;29.75;99347.81;4353183;32;34229;-70
2022/12/13 08:21:34;;;;;;;;;;;;;;;12.43;29.37;99351.72;4348131;32;32886;-70
2022/12/13 08:24:22;;;;;;;;;;;;;;;12.69;28.90;99345.87;4349816;32;35278;-69
2022/12/13 08:26:49;;;;;;;;;;;;;;;13.08;28.19;99343.25;4349468;32;33443;-69
2022/12/13 08:29:17;;;;;;;;;;;;;;;12.95;28.51;99346.19;4353824;32;35378;-69
2022/12/13 08:31:49;;;;;;;;;;;;;;;13.02;27.96;99350.84;4350571;32;35158;-69
2022/12/13 08:34:17;;;;;;;;;;;;;;;12.68;28.64;99352.19;4358267;32;33292;-69
2022/12/13 08:36:44;;;;;;;;;;;;;;;13.13;28.09;99351.72;4357618;32;33906;-69
2022/12/13 08:39:11;;;;;;;;;;;;;;;13.30;27.90;99348.38;4358042;32;34072;-69
2022/12/13 08:41:39;;;;;;;;;;;;;;;13.38;27.73;99347.66;4356615;32;33911;-68
2022/12/13 08:44:06;;;;;;;;;;;;;;;13.43;27.66;99351.63;4355534;32;33133;-69
2022/12/13 08:46:34;;;;;;;;;;;;;;;12.74;27.92;99357.88;4355225;32;33724;-69
2022/12/13 08:49:01;;;;;;;;;;;;;;;12.46;28.39;99356.81;4353221;32;34332;-68
2022/12/13 08:51:28;;;;;;;;;;;;;;;11.97;29.47;99349.53;4354092;32;34605;-68
2022/12/13 08:54:02;;;;;;;;;;;;;;;11.61;30.42;99343.66;4352921;32;33489;-68
2022/12/13 08:56:37;;;;;;;;;;;;;;;11.75;30.21;99342.47;4353117;32;33758;-68
2022/12/13 08:59:10;;;;;;;;;;;;;;;12.40;29.34;99352.00;4353691;32;34280;-68
2022/12/13 09:01:37;;;;;;;;;;;;;;;12.33;28.90;99350.84;4351989;32;35147;-69
2022/12/13 09:04:04;;;;;;;;;;;;;;;14.13;27.17;99352.19;4351748;32;33197;-69
2022/12/13 09:06:32;;;;;;;;;;;;;;;16.01;24.49;99343.34;4353628;32;35658;-69
2022/12/13 09:08:59;;;;;;;;;;;;;;;14.94;25.96;99343.44;4355095;32;35721;-69
2022/12/13 09:11:29;;;;;;;;;;;;;;;15.05;25.51;99343.19;4358094;32;34173;-69
2022/12/13 09:14:04;;;;;;;;;;;;;;;13.98;27.02;99346.41;4329598;32;877067;-69
2022/12/13 09:16:35;;;;;;;;;;;;;;;14.68;26.18;99346.84;4352447;32;34446;-69
2022/12/13 09:19:05;;;;;;;;;;;;;;;16.24;24.34;99340.97;4349326;32;35752;-68
2022/12/13 09:21:52;;;;;;;;;;;;;;;17.18;22.93;99333.69;4353675;32;33546;-69
2022/12/13 09:24:29;;;;;;;;;;;;;;;16.65;23.18;99342.97;4358473;32;33747;-69
2022/12/13 09:27:03;;;;;;;;;;;;;;;15.78;24.75;99334.09;4355441;32;34245;-69
2022/12/13 09:29:36;;;;;;;;;;;;;;;15.30;24.95;99351.53;4356080;32;34246;-69
2022/12/13 09:32:04;;;;;;;;;;;;;;;14.74;25.76;99344.56;4355893;32;34023;-69
2022/12/13 09:34:34;;;;;;;;;;;;;;;14.13;26.33;99344.13;4355384;32;33281;-68
2022/12/13 09:37:02;;;;;;;;;;;;;;;14.04;27.13;99344.16;4355230;32;32835;-68
2022/12/13 09:39:29;;;;;;;;;;;;;;;14.62;25.76;99343.91;4354575;32;32772;-69
2022/12/13 09:41:56;;;;;;;;;;;;;;;15.42;24.73;99344.91;4355650;32;33988;-69
2022/12/13 09:44:28;;;;;;;;;;;;;;;16.36;23.51;99332.56;4355185;32;33507;-69
2022/12/13 09:47:00;;;;;;;;;;;;;;;16.43;23.34;99325.50;4342035;32;34155;-69
2022/12/13 09:49:29;;;;;;;;;;;;;;;16.42;23.32;99324.66;4339874;32;34028;-68
2022/12/13 09:52:02;;;;;;;;;;;;;;;16.47;23.33;99329.59;4345579;32;34127;-68
2022/12/13 09:54:38;;;;;;;;;;;;;;;16.74;23.35;99325.78;4343628;32;33428;-68
2022/12/13 09:57:19;;;;;;;;;;;;;;;16.44;23.90;99328.06;4357482;32;33944;-69
2022/12/13 09:59:57;;;;;;;;;;;;;;;16.40;23.05;99326.66;4342923;32;34026;-67
2022/12/13 10:02:38;;;;;;;;;;;;;;;15.96;23.60;99317.84;4352674;32;34554;-67
2022/12/13 10:05:13;;;;;;;;;;;;;;;16.29;23.32;99321.56;4339774;32;34049;-68
2022/12/13 10:07:50;;;;;;;;;;;;;;;16.19;23.48;99312.75;4354469;32;34324;-68
2022/12/13 10:10:17;;;;;;;;;;;;;;;16.80;21.94;99310.81;4350574;32;32902;-68
2022/12/13 10:12:46;;;;;;;;;;;;;;;17.35;21.68;99308.34;4353650;32;34766;-68
2022/12/13 10:15:15;;;;;;;;;;;;;;;17.77;21.28;99312.75;4353022;32;33258;-68
2022/12/13 10:17:49;;;;;;;;;;;;;;;19.47;19.32;99311.28;4353273;32;33011;-68
2022/12/13 10:20:24;;;;;;;;;;;;;;;19.94;18.73;99297.47;4355673;32;34942;-68
2022/12/13 10:22:52;;;;;;;;;;;;;;;20.44;18.09;99300.44;4352315;32;32954;-68
2022/12/13 10:25:43;;;;;;;;;;;;;;;20.64;17.87;99298.88;4355750;32;33407;-68
2022/12/13 10:28:11;;;;;;;;;;;;;;;20.39;18.24;99303.75;4356201;32;35195;-68
2022/12/13 10:30:39;;;;;;;;;;;;;;;20.91;18.31;99299.19;4340006;32;32970;-68
2022/12/13 10:33:11;;;;;;;;;;;;;;;21.09;17.26;99294.16;4359194;32;34215;-68
2022/12/13 10:35:39;;;;;;;;;;;;;;;20.40;17.80;99297.25;4354393;32;33497;-68
2022/12/13 10:38:06;;;;;;;;;;;;;;;19.08;19.03;99299.53;4357242;32;34136;-68
2022/12/13 10:40:34;;;;;;;;;;;;;;;17.85;20.50;99291.09;4361101;32;33939;-67
2022/12/13 10:43:06;;;;;;;;;;;;;;;17.18;20.40;99293.13;4357519;32;34507;-67
2022/12/13 10:45:33;;;;;;;;;;;;;;;16.15;21.76;99300.59;4360022;32;33368;-67
2022/12/13 10:48:01;;;;;;;;;;;;;;;16.94;21.34;99292.06;4353046;32;34267;-68
2022/12/13 10:50:30;;;;;;;;;;;;;;;17.18;21.46;99285.03;4358856;32;34036;-68
2022/12/13 10:52:58;;;;;;;;;;;;;;;17.97;20.38;99286.13;4354374;32;33180;-68
2022/12/13 10:55:29;;;;;;;;;;;;;;;18.85;20.06;99285.13;4356815;32;33644;-68
2022/12/13 10:57:58;;;;;;;;;;;;;;;20.30;18.66;99282.28;4355289;32;32806;-68
2022/12/13 11:00:30;;;;;;;;;;;;;;;20.76;17.79;99287.50;4343476;32;33754;-68
2022/12/13 11:02:58;;;;;;;;;;;;;;;20.31;18.42;99283.97;4354143;32;34601;-69
2022/12/13 11:05:29;;;;;;;;;;;;;;;19.18;19.13;99280.31;4353771;32;33178;-67
2022/12/13 11:08:10;;;;;;;;;;;;;;;19.73;18.48;99270.19;4358517;32;34541;-68
2022/12/13 11:10:38;;;;;;;;;;;;;;;20.11;18.34;99273.66;4357077;32;35307;-68
2022/12/13 11:13:05;;;;;;;;;;;;;;;20.83;17.86;99270.19;4359729;32;34074;-68
2022/12/13 11:15:34;;;;;;;;;;;;;;;21.13;16.98;99260.06;4348749;32;34238;-71
2022/12/13 11:18:03;;;;;;;;;;;;;;;20.74;17.30;99262.34;4358091;32;32712;-68
2022/12/13 11:20:33;;;;;;;;;;;;;;;19.68;18.05;99269.91;4345645;32;35445;-69
2022/12/13 11:23:01;;;;;;;;;;;;;;;19.20;18.84;99261.97;4358407;32;35287;-69
2022/12/13 11:25:42;;;;;;;;;;;;;;;18.46;19.23;99263.44;4358542;32;31960;-69
2022/12/13 11:28:15;;;;;;;;;;;;;;;18.09;19.45;99256.84;4357653;32;32446;-70
2022/12/13 11:31:07;;;;;;;;;;;;;;;17.28;20.52;99257.81;4359007;32;33000;-69
2022/12/13 11:33:35;;;;;;;;;;;;;;;16.74;20.98;99250.97;4355047;32;34243;-70
2022/12/13 11:36:24;;;;;;;;;;;;;;;15.98;22.25;99251.88;4359728;32;32568;-69
2022/12/13 11:38:57;;;;;;;;;;;;;;;15.50;22.42;99252.41;4359521;32;34187;-69
2022/12/13 11:41:47;;;;;;;;;;;;;;;15.02;22.98;99253.72;4361075;32;35522;-69
2022/12/13 11:44:33;;;;;;;;;;;;;;;14.38;23.71;99252.88;4343394;32;34307;-69
2022/12/13 11:47:00;;;;;;;;;;;;;;;13.46;25.15;99251.84;4360375;32;33625;-69
2022/12/13 11:49:38;;;;;;;;;;;;;;;13.36;25.50;99255.56;4360336;32;32809;-69
2022/12/13 11:52:14;;;;;;;;;;;;;;;12.79;26.32;99252.75;4358617;32;32857;-68
2022/12/13 11:54:44;;;;;;;;;;;;;;;12.07;27.11;99267.28;4360290;32;32723;-67
2022/12/13 11:57:16;;;;;;;;;;;;;;;11.95;27.15;99257.66;4355864;32;32707;-68
2022/12/13 11:59:44;;;;;;;;;;;;;;;11.01;29.68;99264.81;4345145;32;34243;-69
2022/12/13 12:02:14;;;;;;;;;;;;;;;11.35;28.59;99263.66;4361687;32;34504;-67
2022/12/13 12:04:46;;;;;;;;;;;;;;;11.43;28.40;99257.66;4357613;32;34266;-70
2022/12/13 12:07:14;;;;;;;;;;;;;;;11.12;28.74;99260.25;4358383;32;32173;-68
2022/12/13 12:10:02;;;;;;;;;;;;;;;11.58;28.45;99256.31;4360771;32;32643;-67
2022/12/13 12:12:33;;;;;;;;;;;;;;;10.97;29.50;99261.53;4360373;32;33358;-68
2022/12/13 12:15:01;;;;;;;;;;;;;;;11.52;28.65;99261.34;4339172;32;34272;-69
2022/12/13 12:17:41;;;;;;;;;;;;;;;11.15;29.19;99264.50;4352942;32;31988;-69
2022/12/13 12:20:12;;;;;;;;;;;;;;;11.18;29.15;99266.94;4361939;32;34087;-67
2022/12/13 12:22:42;;;;;;;;;;;;;;;11.06;29.25;99259.94;4359185;32;33494;-68
2022/12/13 12:25:31;;;;;;;;;;;;;;;10.98;29.40;99262.37;4356282;32;34128;-67
2022/12/13 12:28:27;;;;;;;;;;;;;;;10.99;28.50;99256.06;4355990;32;33467;-69
2022/12/13 12:30:55;;;;;;;;;;;;;;;10.56;30.33;99262.31;4353066;32;33842;-68
2022/12/13 12:33:31;;;;;;;;;;;;;;;10.72;29.26;99252.03;4361991;32;34888;-68
2022/12/13 12:36:17;;;;;;;;;;;;;;;10.29;29.87;99257.41;4356424;32;35802;-68
2022/12/13 12:39:03;;;;;;;;;;;;;;;10.11;30.20;99259.69;4352049;32;33315;-68
2022/12/13 12:41:40;;;;;;;;;;;;;;;10.11;29.95;99251.66;4357931;32;32888;-67
2022/12/13 12:44:32;;;;;;;;;;;;;;;9.35;31.33;99248.75;4354266;32;34294;-67
2022/12/13 12:47:06;;;;;;;;;;;;;;;10.09;30.72;99242.94;4352426;32;33961;-68
2022/12/13 12:49:56;;;;;;;;;;;;;;;10.36;29.81;99247.91;4354001;32;32251;-68
2022/12/13 12:52:26;;;;;;;;;;;;;;;10.41;29.78;99243.88;4358264;32;33498;-68
2022/12/13 12:55:02;;;;;;;;;;;;;;;10.29;30.77;99250.22;4359663;32;33914;-68
2022/12/13 12:58:02;;;;;;;;;;;;;;;10.17;30.39;99254.69;4345226;32;34177;-68
2022/12/13 13:00:34;;;;;;;;;;;;;;;10.33;29.58;99259.69;4336813;32;33685;-67
2022/12/13 13:03:10;;;;;;;;;;;;;;;10.31;30.28;99255.47;4361185;32;34942;-65
2022/12/13 13:05:55;;;;;;;;;;;;;;;10.39;29.46;99253.84;4361711;32;34578;-65
2022/12/13 13:08:39;;;;;;;;;;;;;;;10.24;30.29;99261.28;4341085;32;34223;-65
2022/12/13 13:11:06;;;;;;;;;;;;;;;9.80;30.82;99268.34;4356245;32;32920;-65
2022/12/13 13:13:58;;;;;;;;;;;;;;;10.31;30.00;99258.97;4344979;32;34290;-65
2022/12/13 13:16:37;;;;;;;;;;;;;;;10.67;29.81;99260.44;4358751;32;33601;-65